Time;durP1;ratioP1;P1;durP2;ratioP2;P2;SDS_P1;SDS_P2;PMS_P1;PMS_P2;Temp;Humidity;BMP_temperature;BMP_pressure;BME280_temperature;BME280_humidity;BME280_pressure;Samples;Min_cycle;Max_cycle;Signal;HPM_P1;HPM_P2
2021/09/23 00:00:32;;;;;;;4.93;4.53;;;;;;;9.50;100.00;96533.31;5032918;28;20230;-76
2021/09/23 00:03:15;;;;;;;4.87;4.33;;;;;;;9.22;100.00;96532.47;5032545;28;20202;-76
2021/09/23 00:05:42;;;;;;;4.63;4.23;;;;;;;9.19;100.00;96528.31;5032740;28;20241;-76
2021/09/23 00:08:10;;;;;;;4.37;3.97;;;;;;;9.25;100.00;96529.56;5032773;28;20671;-76
2021/09/23 00:10:40;;;;;;;4.70;4.30;;;;;;;9.30;100.00;96522.06;5032929;28;20195;-76
2021/09/23 00:13:10;;;;;;;4.20;3.90;;;;;;;9.28;100.00;96522.22;5032991;28;20224;-76
2021/09/23 00:15:38;;;;;;;4.10;3.80;;;;;;;9.18;100.00;96528.44;5032664;28;20209;-76
2021/09/23 00:18:11;;;;;;;4.50;4.20;;;;;;;9.04;100.00;96519.28;5032529;28;20198;-76
2021/09/23 00:20:42;;;;;;;4.57;3.90;;;;;;;8.99;100.00;96522.31;5032835;28;20587;-76
2021/09/23 00:23:10;;;;;;;4.53;4.13;;;;;;;8.98;100.00;96519.84;5032474;28;20191;-76
2021/09/23 00:25:37;;;;;;;5.17;4.47;;;;;;;8.97;100.00;96515.53;5032036;28;20209;-76
2021/09/23 00:28:06;;;;;;;4.93;4.43;;;;;;;9.02;100.00;96508.91;5032678;28;20199;-76
2021/09/23 00:30:35;;;;;;;5.20;4.70;;;;;;;9.01;100.00;96511.69;5032594;28;20203;-75
2021/09/23 00:33:03;;;;;;;4.37;3.97;;;;;;;8.99;100.00;96517.06;5032242;28;20210;-76
2021/09/23 00:35:30;;;;;;;4.23;3.87;;;;;;;8.99;100.00;96524.09;5032523;28;20693;-76
2021/09/23 00:37:58;;;;;;;5.00;4.50;;;;;;;8.95;100.00;96518.31;5032545;28;20277;-76
2021/09/23 00:40:25;;;;;;;4.27;3.90;;;;;;;9.07;100.00;96524.22;5032392;28;20272;-76
2021/09/23 00:42:52;;;;;;;4.73;4.23;;;;;;;9.00;100.00;96516.09;5032054;28;20202;-76
2021/09/23 00:45:22;;;;;;;4.40;4.03;;;;;;;8.91;100.00;96513.50;5032328;28;20198;-76
2021/09/23 00:47:51;;;;;;;6.97;4.30;;;;;;;8.98;100.00;96506.72;5032066;28;20209;-76
2021/09/23 00:50:20;;;;;;;4.37;4.03;;;;;;;8.82;100.00;96500.28;5032185;28;20195;-76
2021/09/23 00:52:48;;;;;;;4.53;4.13;;;;;;;8.78;100.00;96498.91;5031713;28;20229;-76
2021/09/23 00:55:17;;;;;;;6.13;4.77;;;;;;;8.84;100.00;96499.31;5031992;28;20284;-76
2021/09/23 00:57:45;;;;;;;5.17;4.67;;;;;;;8.75;100.00;96509.66;5032215;28;20202;-76
2021/09/23 01:00:14;;;;;;;4.60;4.20;;;;;;;8.94;100.00;96508.00;5031999;28;20223;-76
2021/09/23 01:02:41;;;;;;;4.67;4.27;;;;;;;9.16;100.00;96499.75;5031612;28;20201;-76
2021/09/23 01:05:11;;;;;;;5.20;4.80;;;;;;;8.96;100.00;96503.41;5032336;28;20205;-76
2021/09/23 01:07:44;;;;;;;5.07;4.40;;;;;;;8.87;100.00;96504.25;5031767;28;20206;-77
2021/09/23 01:10:13;;;;;;;8.13;5.37;;;;;;;8.88;100.00;96509.38;5032335;28;20216;-76
2021/09/23 01:12:40;;;;;;;4.90;4.50;;;;;;;8.91;100.00;96510.91;5031786;28;20233;-76
2021/09/23 01:15:09;;;;;;;4.60;4.30;;;;;;;9.02;100.00;96516.78;5031950;28;20230;-76
2021/09/23 01:17:36;;;;;;;5.73;5.17;;;;;;;8.92;100.00;96515.97;5031623;28;20766;-76
2021/09/23 01:20:05;;;;;;;5.47;4.93;;;;;;;9.06;100.00;96514.69;5032169;28;20266;-76
2021/09/23 01:22:34;;;;;;;5.70;5.10;;;;;;;9.04;100.00;96520.09;5031832;28;20285;-76
2021/09/23 01:25:04;;;;;;;5.80;5.30;;;;;;;8.99;100.00;96531.97;5031927;28;20195;-76
2021/09/23 01:27:31;;;;;;;4.70;4.30;;;;;;;8.99;100.00;96532.78;5032093;28;20191;-76
2021/09/23 01:29:59;;;;;;;4.93;4.53;;;;;;;8.93;100.00;96524.66;5032066;28;20195;-76
2021/09/23 01:32:26;;;;;;;4.60;4.20;;;;;;;9.02;100.00;96526.44;5031506;28;20289;-76
2021/09/23 01:34:53;;;;;;;4.63;4.20;;;;;;;8.92;100.00;96538.75;5031699;28;20198;-76
2021/09/23 01:37:20;;;;;;;5.07;4.67;;;;;;;8.95;100.00;96528.81;5031314;28;20238;-76
2021/09/23 01:39:49;;;;;;;4.53;4.20;;;;;;;8.96;100.00;96522.59;5035519;28;20238;-76
2021/09/23 01:42:16;;;;;;;4.93;4.50;;;;;;;8.95;100.00;96527.97;5035631;28;20198;-76
2021/09/23 01:44:44;;;;;;;4.83;4.43;;;;;;;8.81;100.00;96527.47;5035284;28;20213;-76
2021/09/23 01:47:11;;;;;;;4.90;4.43;;;;;;;8.87;100.00;96531.31;5035693;28;20610;-76
2021/09/23 01:49:38;;;;;;;4.47;4.07;;;;;;;8.75;100.00;96516.72;5035788;28;20627;-76
2021/09/23 01:52:05;;;;;;;4.37;3.97;;;;;;;8.74;100.00;96525.56;5043921;28;20582;-76
2021/09/23 01:54:33;;;;;;;4.70;4.30;;;;;;;8.76;100.00;96523.59;5053830;28;20244;-77
2021/09/23 01:57:01;;;;;;;4.63;4.23;;;;;;;8.87;100.00;96533.09;5053684;28;20212;-76
2021/09/23 01:59:28;;;;;;;5.03;4.63;;;;;;;8.75;100.00;96533.25;5053678;28;20194;-76
2021/09/23 02:01:55;;;;;;;4.53;4.13;;;;;;;8.74;100.00;96529.00;5053650;28;20225;-76
2021/09/23 02:04:23;;;;;;;5.20;4.73;;;;;;;8.71;100.00;96529.28;5053932;28;20597;-76
2021/09/23 02:06:50;;;;;;;4.23;3.83;;;;;;;8.71;100.00;96524.03;5053318;28;20198;-76
2021/09/23 02:09:17;;;;;;;4.77;4.37;;;;;;;8.73;100.00;96526.53;5053583;28;20198;-76
2021/09/23 02:11:44;;;;;;;3.97;3.67;;;;;;;8.77;100.00;96526.09;5053938;28;20201;-76
2021/09/23 02:14:13;;;;;;;5.07;4.53;;;;;;;8.80;100.00;96527.63;5053269;28;20667;-76
2021/09/23 02:16:40;;;;;;;5.90;4.30;;;;;;;8.78;100.00;96517.25;5053554;28;20194;-76
2021/09/23 02:19:07;;;;;;;5.43;4.93;;;;;;;8.86;100.00;96520.97;5053359;28;20206;-76
2021/09/23 02:21:34;;;;;;;4.40;4.00;;;;;;;8.82;100.00;96515.19;5053308;28;20222;-76
2021/09/23 02:24:02;;;;;;;4.40;4.00;;;;;;;8.75;100.00;96520.16;5053510;28;20202;-76
2021/09/23 02:26:29;;;;;;;3.80;3.50;;;;;;;8.69;100.00;96525.13;5053446;28;20665;-76
2021/09/23 02:28:56;;;;;;;5.40;4.90;;;;;;;8.82;100.00;96521.25;5042204;28;20238;-76
2021/09/23 02:31:25;;;;;;;5.70;4.90;;;;;;;8.84;100.00;96520.28;5033529;28;20190;-76
2021/09/23 02:33:52;;;;;;;4.83;4.17;;;;;;;8.91;100.00;96521.38;5032903;28;20249;-76
2021/09/23 02:36:20;;;;;;;5.00;4.57;;;;;;;8.73;100.00;96529.97;5033485;28;20294;-76
2021/09/23 02:38:47;;;;;;;5.80;5.20;;;;;;;8.78;100.00;96532.97;5033173;28;20735;-76
2021/09/23 02:41:14;;;;;;;4.80;4.37;;;;;;;8.80;100.00;96536.31;5033276;28;20223;-77
2021/09/23 02:43:41;;;;;;;5.37;4.80;;;;;;;8.73;100.00;96537.84;5033132;28;20221;-76
2021/09/23 02:46:08;;;;;;;5.03;4.53;;;;;;;8.76;100.00;96536.69;5033523;28;20199;-76
2021/09/23 02:48:37;;;;;;;4.67;4.27;;;;;;;8.85;100.00;96535.88;5032602;28;20207;-76
2021/09/23 02:51:06;;;;;;;4.30;4.00;;;;;;;8.91;100.00;96539.72;5033319;28;20195;-77
2021/09/23 02:53:34;;;;;;;4.43;4.03;;;;;;;8.85;100.00;96537.66;4984930;28;1387328;-76
2021/09/23 02:56:01;;;;;;;4.50;4.20;;;;;;;8.73;100.00;96537.84;5034648;28;20195;-76
2021/09/23 02:58:28;;;;;;;4.50;4.10;;;;;;;8.75;100.00;96537.69;5051960;28;20209;-76
2021/09/23 03:00:55;;;;;;;4.77;4.37;;;;;;;8.81;100.00;96535.31;5054046;28;20736;-77
2021/09/23 03:03:22;;;;;;;4.53;4.13;;;;;;;8.80;100.00;96538.91;5054335;28;20552;-76
2021/09/23 03:05:51;;;;;;;4.93;4.43;;;;;;;8.79;100.00;96534.63;5054278;28;20198;-77
2021/09/23 03:08:18;;;;;;;5.00;4.60;;;;;;;8.82;100.00;96538.75;5054035;28;20197;-76
2021/09/23 03:10:45;;;;;;;5.00;4.60;;;;;;;8.82;100.00;96533.53;5054131;28;20638;-76
2021/09/23 03:13:12;;;;;;;4.93;4.53;;;;;;;8.74;100.00;96534.22;5053702;28;20281;-76
2021/09/23 03:15:39;;;;;;;4.73;4.27;;;;;;;8.76;100.00;96536.69;5053932;28;20194;-75
2021/09/23 03:18:07;;;;;;;4.80;4.40;;;;;;;8.87;100.00;96530.47;5053169;28;20208;-75
2021/09/23 03:20:34;;;;;;;5.07;4.63;;;;;;;8.92;100.00;96541.38;5053795;28;20312;-76
2021/09/23 03:23:03;;;;;;;4.73;4.33;;;;;;;8.80;100.00;96538.91;5053401;28;20205;-76
2021/09/23 03:25:31;;;;;;;4.33;3.93;;;;;;;8.80;100.00;96540.72;5054111;28;20200;-76
2021/09/23 03:27:58;;;;;;;5.40;4.90;;;;;;;8.87;100.00;96538.34;5053619;28;20198;-76
2021/09/23 03:30:25;;;;;;;5.57;5.00;;;;;;;8.95;100.00;96538.47;5053591;28;20285;-76
2021/09/23 03:32:53;;;;;;;4.90;4.47;;;;;;;9.03;100.00;96535.94;5051829;28;20198;-76
2021/09/23 03:35:21;;;;;;;5.70;5.20;;;;;;;9.03;100.00;96535.94;5052515;28;20193;-76
2021/09/23 03:37:48;;;;;;;5.00;4.60;;;;;;;9.00;100.00;96537.06;5052506;28;20225;-76
2021/09/23 03:40:17;;;;;;;4.33;3.97;;;;;;;9.11;100.00;96536.09;5052381;28;20202;-76
2021/09/23 03:42:45;;;;;;;4.73;4.33;;;;;;;9.21;100.00;96546.53;5052344;28;20280;-76
2021/09/23 03:45:12;;;;;;;4.70;4.30;;;;;;;9.03;100.00;96554.31;5052251;28;20224;-76
2021/09/23 03:47:40;;;;;;;4.87;4.47;;;;;;;8.77;100.00;96549.69;5051828;28;20208;-76
2021/09/23 03:50:08;;;;;;;5.00;4.60;;;;;;;8.65;100.00;96555.19;5052521;28;20691;-76
2021/09/23 03:52:35;;;;;;;4.50;4.20;;;;;;;8.60;100.00;96550.38;5052115;28;20205;-76
2021/09/23 03:55:04;;;;;;;4.37;4.03;;;;;;;8.56;100.00;96549.03;5051950;28;20230;-76
2021/09/23 03:57:32;;;;;;;4.70;4.30;;;;;;;8.47;100.00;96549.84;5051175;28;20201;-77
2021/09/23 03:59:59;;;;;;;4.40;4.00;;;;;;;8.56;100.00;96554.25;5052119;28;20198;-76
2021/09/23 04:02:27;;;;;;;4.33;3.93;;;;;;;8.63;100.00;96551.91;5052114;28;20225;-76
2021/09/23 04:04:54;;;;;;;4.53;4.13;;;;;;;8.66;100.00;96549.00;5053008;28;20705;-76
2021/09/23 04:07:21;;;;;;;4.57;4.17;;;;;;;8.64;100.00;96554.38;5052448;28;20678;-76
2021/09/23 04:09:48;;;;;;;4.63;4.23;;;;;;;8.76;100.00;96561.13;5053275;28;20193;-76
2021/09/23 04:12:15;;;;;;;4.60;4.20;;;;;;;8.72;100.00;96554.50;5052888;28;20284;-76
2021/09/23 04:14:44;;;;;;;3.97;3.67;;;;;;;8.76;100.00;96557.66;5052805;28;20202;-76
2021/09/23 04:17:12;;;;;;;4.43;4.13;;;;;;;8.73;100.00;96560.59;5052833;28;20198;-75
2021/09/23 04:19:39;;;;;;;4.37;3.97;;;;;;;8.70;100.00;96559.06;5052394;28;20229;-75
2021/09/23 04:22:06;;;;;;;4.30;4.00;;;;;;;8.64;100.00;96564.03;5052496;28;20233;-75
2021/09/23 04:24:33;;;;;;;4.30;4.00;;;;;;;8.66;100.00;96567.31;5052514;28;20201;-76
2021/09/23 04:27:00;;;;;;;4.20;3.80;;;;;;;8.64;100.00;96572.72;5052295;28;20293;-76
2021/09/23 04:29:28;;;;;;;4.27;3.97;;;;;;;8.67;100.00;96574.25;5052276;28;20205;-76
2021/09/23 04:31:56;;;;;;;4.20;3.80;;;;;;;8.64;100.00;96571.91;5051987;28;20197;-75
2021/09/23 04:34:24;;;;;;;4.70;4.30;;;;;;;8.70;100.00;96579.22;5052011;28;20284;-76
2021/09/23 04:36:51;;;;;;;4.40;4.00;;;;;;;8.79;100.00;96575.72;5052212;28;20200;-76
2021/09/23 04:39:18;;;;;;;5.33;4.67;;;;;;;8.74;100.00;96576.16;5052288;28;20199;-75
2021/09/23 04:41:46;;;;;;;4.40;4.10;;;;;;;8.68;100.00;96584.56;5052180;28;20313;-76
2021/09/23 04:44:13;;;;;;;5.50;5.00;;;;;;;8.75;100.00;96580.44;5052100;28;20208;-76
2021/09/23 04:46:41;;;;;;;6.60;5.17;;;;;;;8.56;100.00;96583.91;5031593;28;20206;-76
2021/09/23 04:49:10;;;;;;;6.20;5.23;;;;;;;8.65;100.00;96587.47;5031826;28;20198;-76
2021/09/23 04:51:37;;;;;;;6.47;4.57;;;;;;;8.73;100.00;96582.38;5032207;28;20197;-76
2021/09/23 04:54:06;;;;;;;5.27;4.47;;;;;;;8.76;100.00;96584.72;5031845;28;20750;-76
2021/09/23 04:56:34;;;;;;;17.50;11.37;;;;;;;8.88;100.00;96587.19;5032179;28;20679;-76
2021/09/23 04:59:01;;;;;;;8.23;7.43;;;;;;;8.60;100.00;96583.63;5032008;28;20194;-76
2021/09/23 05:01:28;;;;;;;6.13;4.83;;;;;;;8.63;100.00;96594.66;5031974;28;20226;-76
2021/09/23 05:03:56;;;;;;;4.47;4.07;;;;;;;8.66;100.00;96596.16;5031972;28;20198;-76
2021/09/23 05:06:24;;;;;;;6.33;5.20;;;;;;;8.57;100.00;96592.59;5032038;28;20285;-76
2021/09/23 05:08:52;;;;;;;6.07;4.87;;;;;;;8.30;100.00;96587.97;5031840;28;20229;-76
2021/09/23 05:11:19;;;;;;;6.53;4.80;;;;;;;8.22;100.00;96588.69;5031722;28;20195;-76
2021/09/23 05:13:46;;;;;;;4.77;4.33;;;;;;;8.23;100.00;96587.69;5031665;28;20586;-76
2021/09/23 05:16:14;;;;;;;4.27;3.80;;;;;;;8.39;100.00;96591.63;5032216;28;20194;-76
2021/09/23 05:18:41;;;;;;;5.17;3.63;;;;;;;8.41;100.00;96587.88;5031618;28;20205;-76
2021/09/23 05:21:08;;;;;;;6.97;3.53;;;;;;;8.62;100.00;96594.78;5031703;28;20230;-76
2021/09/23 05:23:37;;;;;;;3.70;3.33;;;;;;;8.75;100.00;96604.00;5031656;28;20199;-76
2021/09/23 05:26:05;;;;;;;3.67;3.40;;;;;;;8.96;100.00;96606.47;5031599;28;20201;-76
2021/09/23 05:28:32;;;;;;;3.23;2.93;;;;;;;9.05;100.00;96624.00;5031552;28;20205;-75
2021/09/23 05:30:59;;;;;;;3.43;3.13;;;;;;;9.16;100.00;96636.13;5031782;28;20194;-76
2021/09/23 05:33:26;;;;;;;3.60;3.30;;;;;;;9.23;100.00;96634.59;5031846;28;20202;-76
2021/09/23 05:35:54;;;;;;;3.20;3.00;;;;;;;9.37;100.00;96635.94;5031541;28;20758;-76
2021/09/23 05:38:23;;;;;;;4.07;3.77;;;;;;;9.37;100.00;96633.31;5031531;28;20195;-76
2021/09/23 05:40:52;;;;;;;3.27;3.00;;;;;;;9.33;100.00;96631.13;5031926;28;20302;-76
2021/09/23 05:43:19;;;;;;;5.67;2.93;;;;;;;9.37;100.00;96632.50;5031486;28;20693;-75
2021/09/23 05:45:46;;;;;;;3.23;3.03;;;;;;;9.50;100.00;96636.47;5031860;28;20202;-75
2021/09/23 05:48:13;;;;;;;2.47;2.27;;;;;;;9.62;100.00;96644.97;5031415;28;20206;-76
2021/09/23 05:50:40;;;;;;;2.63;2.43;;;;;;;9.79;100.00;96634.69;5031910;28;20194;-76
2021/09/23 05:53:07;;;;;;;2.67;2.47;;;;;;;9.88;100.00;96654.84;5031377;28;20217;-76
2021/09/23 05:55:35;;;;;;;2.33;2.13;;;;;;;9.86;100.00;96654.16;5031567;28;20644;-76
2021/09/23 05:58:05;;;;;;;3.17;2.60;;;;;;;9.82;100.00;96652.78;5031227;28;20278;-76
2021/09/23 06:00:32;;;;;;;2.90;2.70;;;;;;;9.72;100.00;96656.25;5029815;28;20209;-75
2021/09/23 06:02:59;;;;;;;3.97;3.60;;;;;;;9.73;100.00;96657.94;5030315;28;20214;-76
2021/09/23 06:05:27;;;;;;;4.10;2.93;;;;;;;9.63;100.00;96657.16;5031470;28;20206;-76
2021/09/23 06:07:54;;;;;;;2.80;2.60;;;;;;;9.66;100.00;96661.25;5031259;28;20207;-76
2021/09/23 06:10:21;;;;;;;11.70;2.70;;;;;;;9.75;100.00;96655.97;5031682;28;20576;-76
2021/09/23 06:12:49;;;;;;;3.90;3.40;;;;;;;9.76;100.00;96654.19;5031151;28;20191;-76
2021/09/23 06:15:17;;;;;;;3.27;2.73;;;;;;;9.82;100.00;96661.50;5031704;28;20238;-75
2021/09/23 06:17:45;;;;;;;2.30;2.20;;;;;;;10.06;100.00;96668.03;5031176;28;20668;-75
2021/09/23 06:20:14;;;;;;;2.07;1.97;;;;;;;10.15;100.00;96677.66;5031206;28;20245;-75
2021/09/23 06:22:41;;;;;;;2.30;2.10;;;;;;;10.36;100.00;96686.16;5031031;28;20709;-75
2021/09/23 06:25:09;;;;;;;2.30;2.20;;;;;;;10.46;100.00;96701.88;5033865;28;20199;-75
2021/09/23 06:27:37;;;;;;;2.67;2.37;;;;;;;10.40;100.00;96705.09;5034522;28;20197;-75
2021/09/23 06:30:06;;;;;;;5.00;2.53;;;;;;;10.44;100.00;96703.81;5034949;28;20207;-75
2021/09/23 06:32:34;;;;;;;4.70;2.33;;;;;;;10.71;100.00;96710.84;5034620;28;20234;-75
2021/09/23 06:35:02;;;;;;;2.93;2.67;;;;;;;10.83;100.00;96709.63;5034948;28;20290;-76
2021/09/23 06:37:29;;;;;;;2.60;2.40;;;;;;;11.03;100.00;96712.97;5034522;28;20742;-76
2021/09/23 06:39:56;;;;;;;3.37;3.07;;;;;;;10.96;100.00;96717.16;5035039;28;20305;-75
2021/09/23 06:42:23;;;;;;;5.93;3.07;;;;;;;11.22;100.00;96717.22;5034402;28;20222;-75
2021/09/23 06:44:51;;;;;;;3.13;2.83;;;;;;;11.41;100.00;96724.13;5034611;28;20590;-75
2021/09/23 06:47:18;;;;;;;3.33;3.03;;;;;;;11.56;100.00;96727.84;5031962;28;20232;-76
2021/09/23 06:49:50;;;;;;;2.90;2.70;;;;;;;11.66;100.00;96728.59;5034455;28;20202;-76
2021/09/23 06:52:17;;;;;;;2.90;2.70;;;;;;;11.43;100.00;96728.28;5034248;28;20278;-76
2021/09/23 06:54:45;;;;;;;4.73;2.93;;;;;;;11.45;100.00;96724.66;5034247;28;20231;-76
2021/09/23 06:57:12;;;;;;;2.90;2.70;;;;;;;11.87;100.00;96735.34;5034221;28;20294;-76
2021/09/23 06:59:39;;;;;;;2.53;2.30;;;;;;;12.09;100.00;96734.84;5034328;28;20685;-76
2021/09/23 07:02:07;;;;;;;2.70;2.50;;;;;;;12.25;100.00;96754.34;5034177;28;20218;-76
2021/09/23 07:04:34;;;;;;;3.93;2.57;;;;;;;12.41;100.00;96743.06;5034120;28;20203;-75
2021/09/23 07:07:03;;;;;;;3.87;3.00;;;;;;;12.57;100.00;96761.56;5034136;28;20201;-75
2021/09/23 07:09:31;;;;;;;2.20;2.00;;;;;;;12.50;100.00;96768.44;5033724;28;20199;-75
2021/09/23 07:12:00;;;;;;;3.30;2.40;;;;;;;12.51;100.00;96770.94;5034136;28;20202;-75
2021/09/23 07:14:27;;;;;;;2.80;2.53;;;;;;;12.67;100.00;96777.25;5033925;28;20257;-75
2021/09/23 07:16:54;;;;;;;3.00;2.73;;;;;;;12.90;100.00;96775.69;5033790;28;20216;-75
2021/09/23 07:19:22;;;;;;;3.07;2.73;;;;;;;13.06;100.00;96774.94;5033764;28;20202;-75
2021/09/23 07:21:49;;;;;;;2.30;2.20;;;;;;;13.02;100.00;96779.69;5033808;28;20616;-75
2021/09/23 07:24:18;;;;;;;6.57;3.07;;;;;;;13.12;100.00;96786.63;5033989;28;20196;-76
2021/09/23 07:26:45;;;;;;;3.33;2.57;;;;;;;13.18;100.00;96783.34;5033566;28;20286;-76
2021/09/23 07:29:15;;;;;;;2.57;2.00;;;;;;;13.07;100.00;96793.22;5033556;28;20195;-76
2021/09/23 07:31:42;;;;;;;3.70;3.40;;;;;;;13.28;100.00;96789.34;5034080;28;20278;-78
2021/09/23 07:34:10;;;;;;;2.57;2.37;;;;;;;13.72;100.00;96789.06;5033760;28;20197;-78
2021/09/23 07:36:37;;;;;;;2.73;2.53;;;;;;;13.34;100.00;96793.16;5032240;28;20198;-76
2021/09/23 07:39:06;;;;;;;2.60;2.37;;;;;;;13.39;100.00;96796.94;5033691;28;20638;-76
2021/09/23 07:41:37;;;;;;;5.30;2.80;;;;;;;13.76;100.00;96788.53;5033497;28;20257;-77
2021/09/23 07:44:05;;;;;;;1.90;1.80;;;;;;;13.65;100.00;96801.28;5033109;28;20193;-76
2021/09/23 07:46:33;;;;;;;2.10;2.00;;;;;;;13.56;100.00;96803.88;5033804;28;20202;-76
2021/09/23 07:49:01;;;;;;;2.30;2.13;;;;;;;13.38;100.00;96803.22;5033211;28;20208;-76
2021/09/23 07:51:28;;;;;;;2.53;2.30;;;;;;;13.28;100.00;96802.53;5033301;28;20202;-76
2021/09/23 07:53:55;;;;;;;2.77;2.57;;;;;;;13.59;100.00;96809.84;5032947;28;20616;-76
2021/09/23 07:56:22;;;;;;;2.43;2.23;;;;;;;13.93;100.00;96802.59;5033290;28;20205;-76
2021/09/23 07:58:51;;;;;;;2.13;2.00;;;;;;;13.85;100.00;96807.84;5033305;28;20221;-77
2021/09/23 08:01:18;;;;;;;2.53;2.33;;;;;;;13.95;100.00;96802.41;5033217;28;20206;-77
2021/09/23 08:03:45;;;;;;;2.87;2.67;;;;;;;14.09;100.00;96799.06;5032595;28;20230;-77
2021/09/23 08:06:13;;;;;;;4.33;2.73;;;;;;;14.38;100.00;96803.84;5033363;28;20198;-76
2021/09/23 08:08:40;;;;;;;1.80;1.70;;;;;;;14.67;100.00;96813.84;5032778;28;20199;-77
2021/09/23 08:11:07;;;;;;;6.03;2.27;;;;;;;14.87;100.00;96808.97;5032728;28;20195;-76
2021/09/23 08:13:34;;;;;;;3.07;2.77;;;;;;;14.43;100.00;96809.44;5032731;28;20586;-76
2021/09/23 08:16:03;;;;;;;4.53;3.53;;;;;;;14.56;100.00;96814.22;5032940;28;20212;-76
2021/09/23 08:18:30;;;;;;;3.63;2.20;;;;;;;14.44;100.00;96808.44;5032933;28;20195;-76
2021/09/23 08:20:58;;;;;;;3.80;2.60;;;;;;;14.44;100.00;96805.81;5033179;28;20198;-76
2021/09/23 08:23:25;;;;;;;2.57;2.37;;;;;;;14.21;100.00;96805.69;5032583;28;20313;-76
2021/09/23 08:25:52;;;;;;;2.03;1.93;;;;;;;14.65;100.00;96817.66;5032734;28;20203;-76
2021/09/23 08:28:23;;;;;;;5.63;2.43;;;;;;;14.45;100.00;96815.38;5032512;28;20198;-76
2021/09/23 08:30:50;;;;;;;3.40;3.17;;;;;;;13.86;100.00;96811.34;5032579;28;20219;-76
2021/09/23 08:33:19;;;;;;;6.67;2.50;;;;;;;13.65;100.00;96811.84;5032379;28;20199;-75
2021/09/23 08:35:47;;;;;;;4.10;3.70;;;;;;;13.64;100.00;96808.34;5032872;28;20197;-76
2021/09/23 08:38:17;;;;;;;2.63;2.37;;;;;;;13.70;100.00;96805.06;5032151;28;20301;-76
2021/09/23 08:40:45;;;;;;;2.30;2.10;;;;;;;13.71;100.00;96800.59;5032523;28;20226;-75
2021/09/23 08:43:12;;;;;;;4.03;2.50;;;;;;;14.07;100.00;96800.25;5032451;28;20283;-76
2021/09/23 08:45:39;;;;;;;15.60;5.63;;;;;;;14.19;100.00;96789.16;5032678;28;20215;-76
2021/09/23 08:48:07;;;;;;;9.23;4.17;;;;;;;14.79;100.00;96793.16;5031693;28;20206;-76
2021/09/23 08:50:36;;;;;;;4.40;2.50;;;;;;;15.20;100.00;96788.44;5032296;28;20671;-76
2021/09/23 08:53:05;;;;;;;5.93;2.63;;;;;;;14.55;100.00;96798.50;5031869;28;20202;-75
2021/09/23 08:55:34;;;;;;;5.40;3.23;;;;;;;14.40;100.00;96801.81;5032288;28;20187;-76
2021/09/23 08:58:05;;;;;;;19.43;7.67;;;;;;;13.93;100.00;96799.13;5032091;28;20202;-76
2021/09/23 09:00:33;;;;;;;19.23;12.50;;;;;;;13.81;100.00;96795.97;5032493;28;20190;-76
2021/09/23 09:03:01;;;;;;;3.93;3.07;;;;;;;13.59;100.00;96789.53;5031786;28;20227;-76
2021/09/23 09:05:28;;;;;;;4.10;2.90;;;;;;;13.41;100.00;96784.41;5032078;28;20213;-76
2021/09/23 09:08:03;;;;;;;2.40;2.20;;;;;;;13.48;100.00;96785.41;5031867;28;20198;-76
2021/09/23 09:10:31;;;;;;;3.23;2.50;;;;;;;13.59;100.00;96784.25;5031767;28;20190;-76
2021/09/23 09:13:02;;;;;;;3.27;2.97;;;;;;;13.74;100.00;96773.84;5031821;28;20241;-76
2021/09/23 09:15:35;;;;;;;3.80;3.07;;;;;;;13.72;100.00;96778.50;5031899;28;20256;-76
2021/09/23 09:18:17;;;;;;;3.70;3.47;;;;;;;13.57;100.00;96780.94;5032098;28;20237;-76
2021/09/23 09:20:52;;;;;;;3.57;2.50;;;;;;;13.94;100.00;96796.28;5031672;28;20186;-75
2021/09/23 09:23:21;;;;;;;2.60;2.17;;;;;;;14.54;100.00;96792.41;5031640;28;20230;-76
2021/09/23 09:25:48;;;;;;;2.23;1.93;;;;;;;15.20;100.00;96788.44;5031834;28;20202;-75
2021/09/23 09:28:19;;;;;;;1.90;1.80;;;;;;;15.09;100.00;96783.56;5031681;28;20285;-76
2021/09/23 09:30:53;;;;;;;2.03;1.93;;;;;;;16.03;100.00;96778.09;5031803;28;20218;-76
2021/09/23 09:33:22;;;;;;;2.17;1.97;;;;;;;15.60;100.00;96780.41;5031462;28;20179;-75
2021/09/23 09:35:49;;;;;;;3.50;3.17;;;;;;;15.39;100.00;96779.22;5031715;28;20205;-76
2021/09/23 09:38:17;;;;;;;2.10;2.00;;;;;;;15.90;100.00;96784.84;5031907;28;20313;-76
2021/09/23 09:40:46;;;;;;;2.40;2.10;;;;;;;15.52;100.00;96780.47;5031479;28;20202;-76
2021/09/23 09:43:16;;;;;;;2.23;2.10;;;;;;;14.71;100.00;96790.53;5031446;28;20222;-76
2021/09/23 09:45:43;;;;;;;4.87;2.30;;;;;;;14.31;100.00;96787.00;5031675;28;20253;-76
2021/09/23 09:48:11;;;;;;;2.70;2.50;;;;;;;14.27;100.00;96790.97;5031432;28;20194;-76
2021/09/23 09:50:42;;;;;;;2.37;2.17;;;;;;;13.97;100.00;96797.78;5031569;28;20203;-76
2021/09/23 09:53:12;;;;;;;2.10;1.67;;;;;;;14.24;100.00;96793.94;5030995;28;20191;-75
2021/09/23 09:55:41;;;;;;;6.80;2.43;;;;;;;14.24;100.00;96796.59;5031871;28;20604;-76
2021/09/23 09:58:11;;;;;;;2.50;2.30;;;;;;;14.57;100.00;96791.25;5031659;28;20210;-76
2021/09/23 10:00:39;;;;;;;2.13;1.93;;;;;;;15.88;100.00;96783.38;5035357;28;20769;-76
2021/09/23 10:03:06;;;;;;;2.53;1.90;;;;;;;16.41;100.00;96784.16;5034891;28;20730;-76
2021/09/23 10:05:33;;;;;;;2.00;1.90;;;;;;;15.28;100.00;96790.25;5035292;28;20195;-76
2021/09/23 10:08:03;;;;;;;2.33;2.13;;;;;;;15.19;100.00;96796.56;5035122;28;20203;-76
2021/09/23 10:10:32;;;;;;;4.43;1.70;;;;;;;14.96;100.00;96791.22;5035118;28;20202;-76
2021/09/23 10:13:00;;;;;;;4.80;2.70;;;;;;;15.82;100.00;96787.53;5035354;28;20210;-76
2021/09/23 10:15:30;;;;;;;1.80;1.70;;;;;;;15.49;100.00;96789.59;5035531;28;20631;-76
2021/09/23 10:18:00;;;;;;;2.20;2.00;;;;;;;15.05;100.00;96790.19;5035265;28;20281;-76
2021/09/23 10:20:29;;;;;;;1.67;1.57;;;;;;;15.03;100.00;96808.06;5035126;28;20240;-76
2021/09/23 10:22:57;;;;;;;2.10;2.00;;;;;;;14.74;100.00;96806.88;5034544;28;20229;-76
2021/09/23 10:25:30;;;;;;;3.63;2.50;;;;;;;15.80;100.00;96805.47;5035034;28;20293;-75
2021/09/23 10:27:59;;;;;;;2.43;2.10;;;;;;;17.31;100.00;96797.16;5034881;28;20676;-76
2021/09/23 10:30:28;;;;;;;1.83;1.73;;;;;;;17.27;100.00;96803.06;5034964;28;20286;-76
2021/09/23 10:32:58;;;;;;;2.63;2.43;;;;;;;16.19;100.00;96791.19;5034769;28;20628;-76
2021/09/23 10:35:26;;;;;;;2.50;2.30;;;;;;;16.00;100.00;96786.41;5034890;28;20196;-76
2021/09/23 10:37:56;;;;;;;2.43;2.20;;;;;;;15.70;100.00;96786.34;5034770;28;20221;-76
2021/09/23 10:40:25;;;;;;;2.00;1.90;;;;;;;15.52;100.00;96788.41;5034812;28;20629;-76
2021/09/23 10:42:54;;;;;;;6.20;2.27;;;;;;;16.15;100.00;96789.91;5034163;28;20652;-76
2021/09/23 10:45:27;;;;;;;1.80;1.70;;;;;;;15.85;100.00;96776.59;5034702;28;20681;-76
2021/09/23 10:47:58;;;;;;;2.40;1.97;;;;;;;16.41;100.00;96778.84;5034436;28;20183;-76
2021/09/23 10:50:27;;;;;;;1.83;1.73;;;;;;;16.09;100.00;96783.50;5034460;28;20188;-76
2021/09/23 10:52:56;;;;;;;4.23;2.67;;;;;;;16.46;100.00;96784.44;5034284;28;20196;-76
2021/09/23 10:55:26;;;;;;;1.83;1.73;;;;;;;15.74;100.00;96781.50;5033720;28;20243;-76
2021/09/23 10:57:54;;;;;;;4.50;2.50;;;;;;;15.65;100.00;96781.50;5054348;28;20262;-76
2021/09/23 11:00:24;;;;;;;4.97;2.27;;;;;;;16.43;100.00;96781.34;5054009;28;20691;-76
2021/09/23 11:02:53;;;;;;;2.03;1.83;;;;;;;16.14;100.00;96789.09;5053934;28;20222;-76
2021/09/23 11:05:23;;;;;;;3.67;2.17;;;;;;;16.00;100.00;96783.75;5054510;28;20196;-76
2021/09/23 11:07:52;;;;;;;2.03;1.83;;;;;;;15.70;100.00;96783.69;5054185;28;20232;-76
2021/09/23 11:10:22;;;;;;;2.40;1.87;;;;;;;15.11;100.00;96784.22;5054136;28;20202;-76
2021/09/23 11:12:52;;;;;;;2.30;2.03;;;;;;;15.66;100.00;96774.44;5053842;28;20671;-76
2021/09/23 11:15:21;;;;;;;2.03;1.93;;;;;;;16.58;100.00;96784.81;5054355;28;20577;-76
2021/09/23 11:17:49;;;;;;;1.97;1.80;;;;;;;16.52;100.00;96772.25;5053540;28;20211;-76
2021/09/23 11:20:19;;;;;;;2.67;2.47;;;;;;;16.03;100.00;96770.13;5054206;28;20191;-76
2021/09/23 11:22:50;;;;;;;1.90;1.70;;;;;;;16.54;100.00;96771.09;5053474;28;20210;-76
2021/09/23 11:25:19;;;;;;;1.70;1.60;;;;;;;16.93;100.00;96777.13;5053964;28;20174;-76
2021/09/23 11:27:48;;;;;;;2.43;2.23;;;;;;;16.38;100.00;96766.81;5053346;28;20679;-76
2021/09/23 11:30:17;;;;;;;12.53;2.83;;;;;;;16.86;100.00;96779.69;5053949;28;20256;-76
2021/09/23 11:32:49;;;;;;;6.10;1.97;;;;;;;17.24;100.00;96776.84;5053811;28;20195;-76